TEZ weather

Tezpur Airport
Assam, India

Public forecast

Using degrees Celsius for public forecast. Weather courtesy of forecast.io.

Closest aviation weather report (METAR) to Tezpur Airport

Closest report is Lokpriya Gopinath Bordoloi International Airport, 73.9 nm (136.9 km) WSW. Retrieved 2020/04/08 05:30 UTC (25 minutes ago):

VEGT 080530Z 02011KT 5000 HZ FEW020 SCT100 31/18 Q1010 NOSIG

Aviation forecast (TAF) for Tezpur Airport

Forecast is more than 12 hours old.

Retrieved 2020/04/07 12:30 UTC (17 hours ago):

TAF VETZ 070930Z 0712/0724 05010G20KT 6000 SCT025 SCT100 TEMPO 0714/0716 FEW030CB